sensor_id;sensor_type;location;lat;lon;timestamp;P1;durP1;ratioP1;P2;durP2;ratioP2
55025;SDS011;40925;45.666;18.994;2023-04-29T00:02:13;15.50;;;8.80;;
55025;SDS011;40925;45.666;18.994;2023-04-29T00:04:38;17.20;;;9.05;;
55025;SDS011;40925;45.666;18.994;2023-04-29T00:07:04;15.88;;;9.20;;
55025;SDS011;40925;45.666;18.994;2023-04-29T00:09:31;15.48;;;9.27;;
55025;SDS011;40925;45.666;18.994;2023-04-29T00:11:57;16.35;;;8.68;;
55025;SDS011;40925;45.666;18.994;2023-04-29T00:14:22;14.45;;;9.10;;
55025;SDS011;40925;45.666;18.994;2023-04-29T00:16:49;17.63;;;8.90;;
55025;SDS011;40925;45.666;18.994;2023-04-29T00:19:14;16.63;;;9.38;;
55025;SDS011;40925;45.666;18.994;2023-04-29T00:21:42;15.70;;;9.40;;
55025;SDS011;40925;45.666;18.994;2023-04-29T00:24:08;15.07;;;8.88;;
55025;SDS011;40925;45.666;18.994;2023-04-29T00:26:33;15.80;;;9.45;;
55025;SDS011;40925;45.666;18.994;2023-04-29T00:28:59;16.05;;;8.80;;
55025;SDS011;40925;45.666;18.994;2023-04-29T00:31:25;14.60;;;9.13;;
55025;SDS011;40925;45.666;18.994;2023-04-29T00:33:51;18.38;;;8.70;;
55025;SDS011;40925;45.666;18.994;2023-04-29T00:36:16;17.27;;;8.73;;
55025;SDS011;40925;45.666;18.994;2023-04-29T00:38:42;14.00;;;8.15;;
55025;SDS011;40925;45.666;18.994;2023-04-29T00:41:08;17.20;;;8.60;;
55025;SDS011;40925;45.666;18.994;2023-04-29T00:43:34;13.40;;;8.38;;
55025;SDS011;40925;45.666;18.994;2023-04-29T00:45:59;20.48;;;8.55;;
55025;SDS011;40925;45.666;18.994;2023-04-29T00:48:25;14.90;;;8.55;;
55025;SDS011;40925;45.666;18.994;2023-04-29T00:50:51;14.75;;;8.15;;
55025;SDS011;40925;45.666;18.994;2023-04-29T00:53:17;16.92;;;8.35;;
55025;SDS011;40925;45.666;18.994;2023-04-29T00:55:43;23.88;;;11.75;;
55025;SDS011;40925;45.666;18.994;2023-04-29T00:58:10;18.75;;;12.25;;
55025;SDS011;40925;45.666;18.994;2023-04-29T01:00:36;14.98;;;10.05;;
55025;SDS011;40925;45.666;18.994;2023-04-29T01:03:03;17.90;;;8.50;;
55025;SDS011;40925;45.666;18.994;2023-04-29T01:05:29;11.85;;;7.72;;
55025;SDS011;40925;45.666;18.994;2023-04-29T01:07:57;15.82;;;7.88;;
55025;SDS011;40925;45.666;18.994;2023-04-29T01:10:43;12.70;;;7.78;;
55025;SDS011;40925;45.666;18.994;2023-04-29T01:13:28;16.60;;;8.48;;
55025;SDS011;40925;45.666;18.994;2023-04-29T01:16:02;19.40;;;10.15;;
55025;SDS011;40925;45.666;18.994;2023-04-29T01:18:33;22.85;;;13.40;;
55025;SDS011;40925;45.666;18.994;2023-04-29T01:21:03;15.60;;;9.25;;
55025;SDS011;40925;45.666;18.994;2023-04-29T01:23:29;15.05;;;9.10;;
55025;SDS011;40925;45.666;18.994;2023-04-29T01:25:55;16.30;;;9.73;;
55025;SDS011;40925;45.666;18.994;2023-04-29T01:31:16;15.02;;;9.55;;
55025;SDS011;40925;45.666;18.994;2023-04-29T01:42:43;15.52;;;9.80;;
55025;SDS011;40925;45.666;18.994;2023-04-29T01:45:13;17.08;;;9.40;;
55025;SDS011;40925;45.666;18.994;2023-04-29T01:47:41;17.25;;;10.25;;
55025;SDS011;40925;45.666;18.994;2023-04-29T01:50:08;16.55;;;10.60;;
55025;SDS011;40925;45.666;18.994;2023-04-29T01:52:35;19.08;;;11.60;;
55025;SDS011;40925;45.666;18.994;2023-04-29T01:55:01;15.88;;;10.55;;
55025;SDS011;40925;45.666;18.994;2023-04-29T01:57:27;13.10;;;9.10;;
55025;SDS011;40925;45.666;18.994;2023-04-29T01:59:53;14.73;;;9.65;;
55025;SDS011;40925;45.666;18.994;2023-04-29T02:02:21;19.90;;;11.35;;
55025;SDS011;40925;45.666;18.994;2023-04-29T02:04:47;15.82;;;9.70;;
55025;SDS011;40925;45.666;18.994;2023-04-29T02:07:14;15.27;;;9.10;;
55025;SDS011;40925;45.666;18.994;2023-04-29T02:09:40;14.43;;;8.38;;
55025;SDS011;40925;45.666;18.994;2023-04-29T02:12:06;12.15;;;8.52;;
55025;SDS011;40925;45.666;18.994;2023-04-29T02:14:32;10.25;;;7.43;;
55025;SDS011;40925;45.666;18.994;2023-04-29T02:16:58;14.73;;;7.35;;
55025;SDS011;40925;45.666;18.994;2023-04-29T02:19:24;13.73;;;7.70;;
55025;SDS011;40925;45.666;18.994;2023-04-29T02:21:50;11.90;;;6.90;;
55025;SDS011;40925;45.666;18.994;2023-04-29T02:24:15;11.20;;;7.30;;
55025;SDS011;40925;45.666;18.994;2023-04-29T02:26:41;10.90;;;6.93;;
55025;SDS011;40925;45.666;18.994;2023-04-29T02:29:07;11.48;;;6.65;;
55025;SDS011;40925;45.666;18.994;2023-04-29T02:31:33;11.55;;;7.13;;
55025;SDS011;40925;45.666;18.994;2023-04-29T02:33:59;9.18;;;6.60;;
55025;SDS011;40925;45.666;18.994;2023-04-29T02:36:25;10.60;;;6.90;;
55025;SDS011;40925;45.666;18.994;2023-04-29T02:38:52;11.93;;;6.82;;
55025;SDS011;40925;45.666;18.994;2023-04-29T02:41:20;10.45;;;6.82;;
55025;SDS011;40925;45.666;18.994;2023-04-29T02:43:46;11.15;;;6.55;;
55025;SDS011;40925;45.666;18.994;2023-04-29T02:46:15;9.45;;;6.38;;
55025;SDS011;40925;45.666;18.994;2023-04-29T02:48:42;12.52;;;6.45;;
55025;SDS011;40925;45.666;18.994;2023-04-29T02:51:08;12.20;;;6.75;;
55025;SDS011;40925;45.666;18.994;2023-04-29T02:53:34;12.88;;;6.30;;
55025;SDS011;40925;45.666;18.994;2023-04-29T02:56:01;9.98;;;6.25;;
55025;SDS011;40925;45.666;18.994;2023-04-29T02:58:27;10.10;;;6.63;;
55025;SDS011;40925;45.666;18.994;2023-04-29T03:00:53;11.75;;;6.22;;
55025;SDS011;40925;45.666;18.994;2023-04-29T03:03:19;11.73;;;6.95;;
55025;SDS011;40925;45.666;18.994;2023-04-29T03:05:45;10.02;;;6.10;;
55025;SDS011;40925;45.666;18.994;2023-04-29T03:08:11;11.00;;;6.30;;
55025;SDS011;40925;45.666;18.994;2023-04-29T03:10:37;11.05;;;6.57;;
55025;SDS011;40925;45.666;18.994;2023-04-29T03:13:03;13.07;;;6.82;;
55025;SDS011;40925;45.666;18.994;2023-04-29T03:15:29;9.00;;;6.25;;
55025;SDS011;40925;45.666;18.994;2023-04-29T03:17:55;11.07;;;6.43;;
55025;SDS011;40925;45.666;18.994;2023-04-29T03:20:23;11.90;;;6.30;;
55025;SDS011;40925;45.666;18.994;2023-04-29T03:22:49;11.48;;;6.43;;
55025;SDS011;40925;45.666;18.994;2023-04-29T03:25:15;9.88;;;6.30;;
55025;SDS011;40925;45.666;18.994;2023-04-29T03:27:42;10.35;;;6.18;;
55025;SDS011;40925;45.666;18.994;2023-04-29T03:30:08;10.65;;;6.40;;
55025;SDS011;40925;45.666;18.994;2023-04-29T03:32:35;10.25;;;6.32;;
55025;SDS011;40925;45.666;18.994;2023-04-29T03:35:02;9.02;;;6.10;;
55025;SDS011;40925;45.666;18.994;2023-04-29T03:37:29;10.68;;;5.93;;
55025;SDS011;40925;45.666;18.994;2023-04-29T03:39:55;10.88;;;6.30;;
55025;SDS011;40925;45.666;18.994;2023-04-29T03:42:21;8.82;;;6.10;;
55025;SDS011;40925;45.666;18.994;2023-04-29T03:44:47;11.80;;;6.57;;
55025;SDS011;40925;45.666;18.994;2023-04-29T03:47:13;9.60;;;6.25;;
55025;SDS011;40925;45.666;18.994;2023-04-29T03:49:39;11.88;;;6.32;;
55025;SDS011;40925;45.666;18.994;2023-04-29T03:52:06;10.27;;;6.05;;
55025;SDS011;40925;45.666;18.994;2023-04-29T03:54:32;11.50;;;6.47;;
55025;SDS011;40925;45.666;18.994;2023-04-29T03:56:58;11.00;;;6.20;;
55025;SDS011;40925;45.666;18.994;2023-04-29T03:59:24;9.82;;;6.05;;
55025;SDS011;40925;45.666;18.994;2023-04-29T04:01:50;10.70;;;6.32;;
55025;SDS011;40925;45.666;18.994;2023-04-29T04:04:18;11.60;;;6.68;;
55025;SDS011;40925;45.666;18.994;2023-04-29T04:06:44;12.20;;;6.43;;
55025;SDS011;40925;45.666;18.994;2023-04-29T04:09:16;11.13;;;6.55;;
55025;SDS011;40925;45.666;18.994;2023-04-29T04:11:42;10.77;;;6.50;;
55025;SDS011;40925;45.666;18.994;2023-04-29T04:14:08;10.88;;;6.68;;
55025;SDS011;40925;45.666;18.994;2023-04-29T04:16:34;12.15;;;6.43;;
55025;SDS011;40925;45.666;18.994;2023-04-29T04:19:00;10.55;;;6.32;;
55025;SDS011;40925;45.666;18.994;2023-04-29T04:24:30;12.07;;;6.32;;
55025;SDS011;40925;45.666;18.994;2023-04-29T04:26:56;10.95;;;6.50;;
55025;SDS011;40925;45.666;18.994;2023-04-29T04:29:22;10.90;;;6.93;;
55025;SDS011;40925;45.666;18.994;2023-04-29T04:31:48;11.02;;;6.50;;
55025;SDS011;40925;45.666;18.994;2023-04-29T04:34:14;13.07;;;6.53;;
55025;SDS011;40925;45.666;18.994;2023-04-29T04:36:58;12.48;;;6.72;;
55025;SDS011;40925;45.666;18.994;2023-04-29T04:39:25;12.13;;;6.70;;
55025;SDS011;40925;45.666;18.994;2023-04-29T04:41:51;10.75;;;6.93;;
55025;SDS011;40925;45.666;18.994;2023-04-29T04:44:17;11.00;;;6.78;;
55025;SDS011;40925;45.666;18.994;2023-04-29T04:46:43;10.90;;;6.75;;
55025;SDS011;40925;45.666;18.994;2023-04-29T04:49:10;12.60;;;7.30;;
55025;SDS011;40925;45.666;18.994;2023-04-29T04:51:36;12.80;;;7.10;;
55025;SDS011;40925;45.666;18.994;2023-04-29T04:54:02;15.30;;;7.40;;
55025;SDS011;40925;45.666;18.994;2023-04-29T04:56:28;13.60;;;7.60;;
55025;SDS011;40925;45.666;18.994;2023-04-29T04:58:54;12.00;;;7.32;;
55025;SDS011;40925;45.666;18.994;2023-04-29T05:01:20;10.40;;;7.13;;
55025;SDS011;40925;45.666;18.994;2023-04-29T05:03:46;12.52;;;7.03;;
55025;SDS011;40925;45.666;18.994;2023-04-29T05:06:12;14.57;;;7.38;;
55025;SDS011;40925;45.666;18.994;2023-04-29T05:08:38;11.57;;;7.95;;
55025;SDS011;40925;45.666;18.994;2023-04-29T05:11:05;12.25;;;7.70;;
55025;SDS011;40925;45.666;18.994;2023-04-29T05:13:31;15.32;;;7.93;;
55025;SDS011;40925;45.666;18.994;2023-04-29T05:16:01;10.93;;;7.07;;
55025;SDS011;40925;45.666;18.994;2023-04-29T05:18:27;13.38;;;7.65;;
55025;SDS011;40925;45.666;18.994;2023-04-29T05:20:53;11.48;;;7.22;;
55025;SDS011;40925;45.666;18.994;2023-04-29T05:23:19;12.25;;;7.25;;
55025;SDS011;40925;45.666;18.994;2023-04-29T05:25:47;11.77;;;7.43;;
55025;SDS011;40925;45.666;18.994;2023-04-29T05:28:13;12.88;;;7.53;;
55025;SDS011;40925;45.666;18.994;2023-04-29T05:30:39;11.77;;;7.30;;
55025;SDS011;40925;45.666;18.994;2023-04-29T05:33:05;11.32;;;7.72;;
55025;SDS011;40925;45.666;18.994;2023-04-29T05:35:31;12.43;;;7.80;;
55025;SDS011;40925;45.666;18.994;2023-04-29T05:37:57;14.18;;;8.15;;
55025;SDS011;40925;45.666;18.994;2023-04-29T05:40:23;11.80;;;7.78;;
55025;SDS011;40925;45.666;18.994;2023-04-29T05:42:50;14.10;;;7.85;;
55025;SDS011;40925;45.666;18.994;2023-04-29T05:45:16;13.15;;;7.75;;
55025;SDS011;40925;45.666;18.994;2023-04-29T05:47:42;11.35;;;7.32;;
55025;SDS011;40925;45.666;18.994;2023-04-29T05:50:08;12.15;;;7.03;;
55025;SDS011;40925;45.666;18.994;2023-04-29T05:52:54;12.15;;;7.28;;
55025;SDS011;40925;45.666;18.994;2023-04-29T05:55:20;11.77;;;7.47;;
55025;SDS011;40925;45.666;18.994;2023-04-29T05:57:46;10.93;;;7.40;;
55025;SDS011;40925;45.666;18.994;2023-04-29T06:00:12;10.60;;;7.10;;
55025;SDS011;40925;45.666;18.994;2023-04-29T06:02:39;11.50;;;7.07;;
55025;SDS011;40925;45.666;18.994;2023-04-29T06:05:07;10.52;;;6.60;;
55025;SDS011;40925;45.666;18.994;2023-04-29T06:07:52;12.18;;;7.70;;
55025;SDS011;40925;45.666;18.994;2023-04-29T06:10:18;13.45;;;7.20;;
55025;SDS011;40925;45.666;18.994;2023-04-29T06:12:44;14.38;;;7.40;;
55025;SDS011;40925;45.666;18.994;2023-04-29T06:15:11;11.75;;;6.60;;
55025;SDS011;40925;45.666;18.994;2023-04-29T06:17:37;10.27;;;6.88;;
55025;SDS011;40925;45.666;18.994;2023-04-29T06:20:04;12.52;;;6.70;;
55025;SDS011;40925;45.666;18.994;2023-04-29T06:22:49;10.35;;;6.68;;
55025;SDS011;40925;45.666;18.994;2023-04-29T06:25:15;9.43;;;6.30;;
55025;SDS011;40925;45.666;18.994;2023-04-29T06:27:41;9.05;;;6.10;;
55025;SDS011;40925;45.666;18.994;2023-04-29T06:30:07;10.48;;;6.40;;
55025;SDS011;40925;45.666;18.994;2023-04-29T06:32:33;8.85;;;5.53;;
55025;SDS011;40925;45.666;18.994;2023-04-29T06:34:59;11.05;;;5.57;;
55025;SDS011;40925;45.666;18.994;2023-04-29T06:37:25;9.75;;;5.72;;
55025;SDS011;40925;45.666;18.994;2023-04-29T06:39:52;9.27;;;6.20;;
55025;SDS011;40925;45.666;18.994;2023-04-29T06:42:18;9.85;;;6.60;;
55025;SDS011;40925;45.666;18.994;2023-04-29T06:44:45;10.20;;;5.60;;
55025;SDS011;40925;45.666;18.994;2023-04-29T06:47:11;12.15;;;5.63;;
55025;SDS011;40925;45.666;18.994;2023-04-29T06:49:37;15.93;;;6.60;;
55025;SDS011;40925;45.666;18.994;2023-04-29T06:52:03;10.43;;;5.60;;
55025;SDS011;40925;45.666;18.994;2023-04-29T06:54:29;10.80;;;5.93;;
55025;SDS011;40925;45.666;18.994;2023-04-29T06:56:55;9.18;;;5.38;;
55025;SDS011;40925;45.666;18.994;2023-04-29T06:59:22;8.40;;;5.30;;
55025;SDS011;40925;45.666;18.994;2023-04-29T07:01:48;8.50;;;5.20;;
55025;SDS011;40925;45.666;18.994;2023-04-29T07:04:16;9.25;;;5.43;;
55025;SDS011;40925;45.666;18.994;2023-04-29T07:06:42;9.90;;;5.50;;
55025;SDS011;40925;45.666;18.994;2023-04-29T07:09:11;9.93;;;4.93;;
55025;SDS011;40925;45.666;18.994;2023-04-29T07:11:38;7.75;;;4.50;;
55025;SDS011;40925;45.666;18.994;2023-04-29T07:14:04;10.73;;;5.25;;
55025;SDS011;40925;45.666;18.994;2023-04-29T07:16:31;7.30;;;4.60;;
55025;SDS011;40925;45.666;18.994;2023-04-29T07:18:57;9.80;;;5.00;;
55025;SDS011;40925;45.666;18.994;2023-04-29T07:21:23;10.65;;;4.95;;
55025;SDS011;40925;45.666;18.994;2023-04-29T07:23:49;10.57;;;4.97;;
55025;SDS011;40925;45.666;18.994;2023-04-29T07:26:15;10.68;;;5.13;;
55025;SDS011;40925;45.666;18.994;2023-04-29T07:28:42;8.77;;;5.40;;
55025;SDS011;40925;45.666;18.994;2023-04-29T07:31:08;11.57;;;5.47;;
55025;SDS011;40925;45.666;18.994;2023-04-29T07:33:36;12.35;;;5.75;;
55025;SDS011;40925;45.666;18.994;2023-04-29T07:36:07;15.18;;;8.35;;
55025;SDS011;40925;45.666;18.994;2023-04-29T07:38:34;8.93;;;6.15;;
55025;SDS011;40925;45.666;18.994;2023-04-29T07:41:01;11.50;;;6.13;;
55025;SDS011;40925;45.666;18.994;2023-04-29T07:43:28;9.18;;;5.20;;
55025;SDS011;40925;45.666;18.994;2023-04-29T07:45:54;7.30;;;4.80;;
55025;SDS011;40925;45.666;18.994;2023-04-29T07:48:20;6.13;;;4.20;;
55025;SDS011;40925;45.666;18.994;2023-04-29T07:50:46;9.65;;;4.50;;
55025;SDS011;40925;45.666;18.994;2023-04-29T07:59:46;9.82;;;5.35;;
55025;SDS011;40925;45.666;18.994;2023-04-29T08:02:12;9.60;;;5.20;;
55025;SDS011;40925;45.666;18.994;2023-04-29T08:04:40;15.55;;;8.60;;
55025;SDS011;40925;45.666;18.994;2023-04-29T08:07:06;12.35;;;6.60;;
55025;SDS011;40925;45.666;18.994;2023-04-29T08:09:33;13.15;;;8.88;;
55025;SDS011;40925;45.666;18.994;2023-04-29T08:11:59;12.88;;;6.50;;
55025;SDS011;40925;45.666;18.994;2023-04-29T08:14:26;10.05;;;6.10;;
55025;SDS011;40925;45.666;18.994;2023-04-29T08:16:52;19.15;;;9.52;;
55025;SDS011;40925;45.666;18.994;2023-04-29T08:19:19;12.60;;;6.20;;
55025;SDS011;40925;45.666;18.994;2023-04-29T08:21:45;10.77;;;6.40;;
55025;SDS011;40925;45.666;18.994;2023-04-29T08:24:11;10.32;;;5.95;;
55025;SDS011;40925;45.666;18.994;2023-04-29T08:26:40;10.35;;;5.78;;
55025;SDS011;40925;45.666;18.994;2023-04-29T08:29:07;9.88;;;5.60;;
55025;SDS011;40925;45.666;18.994;2023-04-29T08:31:33;11.02;;;5.80;;
55025;SDS011;40925;45.666;18.994;2023-04-29T08:33:59;15.40;;;9.43;;
55025;SDS011;40925;45.666;18.994;2023-04-29T08:36:25;9.32;;;5.82;;
55025;SDS011;40925;45.666;18.994;2023-04-29T08:38:52;9.32;;;6.03;;
55025;SDS011;40925;45.666;18.994;2023-04-29T08:41:18;7.38;;;4.75;;
55025;SDS011;40925;45.666;18.994;2023-04-29T08:43:44;9.82;;;5.32;;
55025;SDS011;40925;45.666;18.994;2023-04-29T08:46:10;8.18;;;4.80;;
55025;SDS011;40925;45.666;18.994;2023-04-29T08:48:37;9.30;;;5.18;;
55025;SDS011;40925;45.666;18.994;2023-04-29T08:51:05;8.23;;;5.28;;
55025;SDS011;40925;45.666;18.994;2023-04-29T08:53:31;7.40;;;4.32;;
55025;SDS011;40925;45.666;18.994;2023-04-29T08:56:00;9.57;;;4.88;;
55025;SDS011;40925;45.666;18.994;2023-04-29T08:58:30;10.60;;;5.00;;
55025;SDS011;40925;45.666;18.994;2023-04-29T09:00:58;8.90;;;4.55;;
55025;SDS011;40925;45.666;18.994;2023-04-29T09:03:46;9.15;;;4.75;;
55025;SDS011;40925;45.666;18.994;2023-04-29T09:06:16;7.43;;;4.90;;
55025;SDS011;40925;45.666;18.994;2023-04-29T09:08:42;8.18;;;4.28;;
55025;SDS011;40925;45.666;18.994;2023-04-29T09:11:08;8.35;;;4.93;;
55025;SDS011;40925;45.666;18.994;2023-04-29T09:13:36;7.75;;;4.40;;
55025;SDS011;40925;45.666;18.994;2023-04-29T09:16:02;7.50;;;4.60;;
55025;SDS011;40925;45.666;18.994;2023-04-29T09:18:46;9.70;;;4.63;;
55025;SDS011;40925;45.666;18.994;2023-04-29T09:21:13;8.85;;;5.40;;
55025;SDS011;40925;45.666;18.994;2023-04-29T09:23:40;9.25;;;5.18;;
55025;SDS011;40925;45.666;18.994;2023-04-29T09:26:06;10.13;;;5.30;;
55025;SDS011;40925;45.666;18.994;2023-04-29T09:28:32;10.30;;;5.15;;
55025;SDS011;40925;45.666;18.994;2023-04-29T09:30:58;9.23;;;5.95;;
55025;SDS011;40925;45.666;18.994;2023-04-29T09:33:24;10.32;;;6.25;;
55025;SDS011;40925;45.666;18.994;2023-04-29T09:35:52;11.65;;;6.32;;
55025;SDS011;40925;45.666;18.994;2023-04-29T09:38:19;9.95;;;5.25;;
55025;SDS011;40925;45.666;18.994;2023-04-29T09:40:46;7.20;;;3.97;;
55025;SDS011;40925;45.666;18.994;2023-04-29T09:43:13;6.18;;;4.25;;
55025;SDS011;40925;45.666;18.994;2023-04-29T09:45:41;7.00;;;3.85;;
55025;SDS011;40925;45.666;18.994;2023-04-29T09:48:08;7.38;;;3.67;;
55025;SDS011;40925;45.666;18.994;2023-04-29T09:50:35;7.10;;;3.55;;
55025;SDS011;40925;45.666;18.994;2023-04-29T09:53:02;6.45;;;3.60;;
55025;SDS011;40925;45.666;18.994;2023-04-29T09:55:29;7.05;;;3.65;;
55025;SDS011;40925;45.666;18.994;2023-04-29T09:57:55;7.57;;;3.70;;
55025;SDS011;40925;45.666;18.994;2023-04-29T10:00:22;7.05;;;3.95;;
55025;SDS011;40925;45.666;18.994;2023-04-29T10:02:49;7.47;;;3.80;;
55025;SDS011;40925;45.666;18.994;2023-04-29T10:05:18;9.18;;;3.85;;
55025;SDS011;40925;45.666;18.994;2023-04-29T10:10:48;8.43;;;3.70;;
55025;SDS011;40925;45.666;18.994;2023-04-29T10:13:21;5.50;;;3.50;;
55025;SDS011;40925;45.666;18.994;2023-04-29T10:15:59;6.53;;;3.92;;
55025;SDS011;40925;45.666;18.994;2023-04-29T10:18:37;7.13;;;3.45;;
55025;SDS011;40925;45.666;18.994;2023-04-29T10:21:08;8.60;;;3.58;;
55025;SDS011;40925;45.666;18.994;2023-04-29T10:23:36;6.88;;;3.58;;
55025;SDS011;40925;45.666;18.994;2023-04-29T10:26:02;5.22;;;3.47;;
55025;SDS011;40925;45.666;18.994;2023-04-29T10:28:30;5.45;;;3.50;;
55025;SDS011;40925;45.666;18.994;2023-04-29T10:30:57;7.28;;;3.70;;
55025;SDS011;40925;45.666;18.994;2023-04-29T10:33:32;6.88;;;3.50;;
55025;SDS011;40925;45.666;18.994;2023-04-29T10:36:00;7.25;;;3.60;;
55025;SDS011;40925;45.666;18.994;2023-04-29T10:38:28;7.80;;;3.70;;
55025;SDS011;40925;45.666;18.994;2023-04-29T10:41:01;7.18;;;3.50;;
55025;SDS011;40925;45.666;18.994;2023-04-29T10:43:33;7.10;;;3.83;;
55025;SDS011;40925;45.666;18.994;2023-04-29T10:49:01;14.80;;;8.10;;
55025;SDS011;40925;45.666;18.994;2023-04-29T10:51:32;6.45;;;2.80;;
55025;SDS011;40925;45.666;18.994;2023-04-29T10:54:06;7.57;;;2.85;;
55025;SDS011;40925;45.666;18.994;2023-04-29T10:56:37;4.97;;;2.30;;
55025;SDS011;40925;45.666;18.994;2023-04-29T10:59:10;5.72;;;3.17;;
55025;SDS011;40925;45.666;18.994;2023-04-29T11:04:08;5.85;;;3.20;;
55025;SDS011;40925;45.666;18.994;2023-04-29T11:14:26;7.15;;;3.03;;
55025;SDS011;40925;45.666;18.994;2023-04-29T11:17:10;7.28;;;2.83;;
55025;SDS011;40925;45.666;18.994;2023-04-29T11:19:44;4.53;;;2.50;;
55025;SDS011;40925;45.666;18.994;2023-04-29T11:24:50;5.30;;;2.47;;
55025;SDS011;40925;45.666;18.994;2023-04-29T11:27:42;3.63;;;2.30;;
55025;SDS011;40925;45.666;18.994;2023-04-29T11:30:12;4.03;;;2.22;;
55025;SDS011;40925;45.666;18.994;2023-04-29T11:32:39;3.47;;;2.20;;
55025;SDS011;40925;45.666;18.994;2023-04-29T11:37:39;4.82;;;2.47;;
55025;SDS011;40925;45.666;18.994;2023-04-29T11:40:06;5.32;;;2.50;;
55025;SDS011;40925;45.666;18.994;2023-04-29T11:42:33;6.35;;;2.63;;
55025;SDS011;40925;45.666;18.994;2023-04-29T11:45:00;3.92;;;2.38;;
55025;SDS011;40925;45.666;18.994;2023-04-29T11:47:27;4.82;;;2.40;;
55025;SDS011;40925;45.666;18.994;2023-04-29T11:50:00;5.25;;;2.67;;
55025;SDS011;40925;45.666;18.994;2023-04-29T11:52:27;5.22;;;2.50;;
55025;SDS011;40925;45.666;18.994;2023-04-29T11:54:53;4.35;;;2.85;;
55025;SDS011;40925;45.666;18.994;2023-04-29T11:57:19;8.65;;;3.92;;
55025;SDS011;40925;45.666;18.994;2023-04-29T11:59:45;5.68;;;2.40;;
55025;SDS011;40925;45.666;18.994;2023-04-29T12:02:11;4.95;;;2.55;;
55025;SDS011;40925;45.666;18.994;2023-04-29T12:04:44;4.60;;;2.55;;
55025;SDS011;40925;45.666;18.994;2023-04-29T12:07:13;5.63;;;2.25;;
55025;SDS011;40925;45.666;18.994;2023-04-29T12:09:41;3.42;;;2.30;;
55025;SDS011;40925;45.666;18.994;2023-04-29T12:12:07;4.13;;;2.25;;
55025;SDS011;40925;45.666;18.994;2023-04-29T12:14:33;5.65;;;2.60;;
55025;SDS011;40925;45.666;18.994;2023-04-29T12:16:59;4.85;;;2.30;;
55025;SDS011;40925;45.666;18.994;2023-04-29T12:19:25;3.67;;;2.15;;
55025;SDS011;40925;45.666;18.994;2023-04-29T12:21:51;5.80;;;2.67;;
55025;SDS011;40925;45.666;18.994;2023-04-29T12:24:19;3.80;;;2.30;;
55025;SDS011;40925;45.666;18.994;2023-04-29T12:26:45;3.67;;;2.10;;
55025;SDS011;40925;45.666;18.994;2023-04-29T12:29:11;6.18;;;4.03;;
55025;SDS011;40925;45.666;18.994;2023-04-29T12:31:38;3.65;;;2.05;;
55025;SDS011;40925;45.666;18.994;2023-04-29T12:34:04;8.75;;;7.20;;
55025;SDS011;40925;45.666;18.994;2023-04-29T12:36:30;4.97;;;2.03;;
55025;SDS011;40925;45.666;18.994;2023-04-29T12:38:56;4.60;;;2.03;;
55025;SDS011;40925;45.666;18.994;2023-04-29T12:44:25;4.10;;;2.40;;
55025;SDS011;40925;45.666;18.994;2023-04-29T12:47:05;3.70;;;2.10;;
55025;SDS011;40925;45.666;18.994;2023-04-29T12:49:32;4.88;;;2.33;;
55025;SDS011;40925;45.666;18.994;2023-04-29T12:51:58;4.75;;;3.10;;
55025;SDS011;40925;45.666;18.994;2023-04-29T12:54:24;4.22;;;2.05;;
55025;SDS011;40925;45.666;18.994;2023-04-29T12:56:50;3.80;;;2.30;;
55025;SDS011;40925;45.666;18.994;2023-04-29T12:59:16;4.72;;;2.20;;
55025;SDS011;40925;45.666;18.994;2023-04-29T13:01:42;3.17;;;1.90;;
55025;SDS011;40925;45.666;18.994;2023-04-29T13:04:07;5.57;;;2.05;;
55025;SDS011;40925;45.666;18.994;2023-04-29T13:06:35;5.18;;;2.22;;
55025;SDS011;40925;45.666;18.994;2023-04-29T13:09:04;3.60;;;2.05;;
55025;SDS011;40925;45.666;18.994;2023-04-29T13:11:36;5.93;;;2.40;;
55025;SDS011;40925;45.666;18.994;2023-04-29T13:14:03;6.45;;;3.28;;
55025;SDS011;40925;45.666;18.994;2023-04-29T13:16:31;4.47;;;2.60;;
55025;SDS011;40925;45.666;18.994;2023-04-29T13:18:58;4.25;;;2.30;;
55025;SDS011;40925;45.666;18.994;2023-04-29T13:21:24;5.63;;;2.05;;
55025;SDS011;40925;45.666;18.994;2023-04-29T13:23:51;4.00;;;2.00;;
55025;SDS011;40925;45.666;18.994;2023-04-29T13:26:17;8.13;;;3.08;;
55025;SDS011;40925;45.666;18.994;2023-04-29T13:28:43;4.38;;;2.30;;
55025;SDS011;40925;45.666;18.994;2023-04-29T13:31:09;3.80;;;2.10;;
55025;SDS011;40925;45.666;18.994;2023-04-29T13:33:34;5.85;;;2.30;;
55025;SDS011;40925;45.666;18.994;2023-04-29T13:36:00;2.90;;;1.60;;
55025;SDS011;40925;45.666;18.994;2023-04-29T13:38:26;3.47;;;1.60;;
55025;SDS011;40925;45.666;18.994;2023-04-29T13:40:52;4.57;;;2.00;;
55025;SDS011;40925;45.666;18.994;2023-04-29T13:43:18;4.35;;;1.77;;
55025;SDS011;40925;45.666;18.994;2023-04-29T13:45:43;3.58;;;1.80;;
55025;SDS011;40925;45.666;18.994;2023-04-29T13:48:09;3.88;;;2.20;;
55025;SDS011;40925;45.666;18.994;2023-04-29T13:50:35;4.15;;;2.38;;
55025;SDS011;40925;45.666;18.994;2023-04-29T13:53:01;6.18;;;3.70;;
55025;SDS011;40925;45.666;18.994;2023-04-29T13:55:26;4.95;;;2.03;;
55025;SDS011;40925;45.666;18.994;2023-04-29T13:57:53;4.78;;;2.17;;
55025;SDS011;40925;45.666;18.994;2023-04-29T14:00:18;3.03;;;2.00;;
55025;SDS011;40925;45.666;18.994;2023-04-29T14:02:44;3.25;;;2.00;;
55025;SDS011;40925;45.666;18.994;2023-04-29T14:05:10;4.90;;;2.10;;
55025;SDS011;40925;45.666;18.994;2023-04-29T14:07:35;2.67;;;1.85;;
55025;SDS011;40925;45.666;18.994;2023-04-29T14:10:01;5.03;;;2.08;;
55025;SDS011;40925;45.666;18.994;2023-04-29T14:12:27;3.95;;;2.10;;
55025;SDS011;40925;45.666;18.994;2023-04-29T14:14:53;5.32;;;2.10;;
55025;SDS011;40925;45.666;18.994;2023-04-29T14:17:19;4.20;;;2.20;;
55025;SDS011;40925;45.666;18.994;2023-04-29T14:19:44;6.15;;;1.98;;
55025;SDS011;40925;45.666;18.994;2023-04-29T14:22:10;3.95;;;2.10;;
55025;SDS011;40925;45.666;18.994;2023-04-29T14:24:36;3.58;;;1.75;;
55025;SDS011;40925;45.666;18.994;2023-04-29T14:27:03;4.00;;;2.20;;
55025;SDS011;40925;45.666;18.994;2023-04-29T14:29:29;2.72;;;1.70;;
55025;SDS011;40925;45.666;18.994;2023-04-29T14:31:54;2.50;;;1.70;;
55025;SDS011;40925;45.666;18.994;2023-04-29T14:34:21;2.60;;;1.73;;
55025;SDS011;40925;45.666;18.994;2023-04-29T14:36:47;3.85;;;2.40;;
55025;SDS011;40925;45.666;18.994;2023-04-29T14:39:13;2.70;;;1.90;;
55025;SDS011;40925;45.666;18.994;2023-04-29T14:41:38;3.45;;;2.03;;
55025;SDS011;40925;45.666;18.994;2023-04-29T14:44:04;3.30;;;2.10;;
55025;SDS011;40925;45.666;18.994;2023-04-29T14:46:30;4.65;;;2.05;;
55025;SDS011;40925;45.666;18.994;2023-04-29T14:48:57;4.80;;;1.90;;
55025;SDS011;40925;45.666;18.994;2023-04-29T14:51:23;2.75;;;1.80;;
55025;SDS011;40925;45.666;18.994;2023-04-29T14:53:49;3.78;;;1.90;;
55025;SDS011;40925;45.666;18.994;2023-04-29T14:56:16;4.97;;;2.10;;
55025;SDS011;40925;45.666;18.994;2023-04-29T14:58:42;4.10;;;2.28;;
55025;SDS011;40925;45.666;18.994;2023-04-29T15:01:08;4.50;;;2.20;;
55025;SDS011;40925;45.666;18.994;2023-04-29T15:03:33;4.25;;;2.10;;
55025;SDS011;40925;45.666;18.994;2023-04-29T15:06:02;3.40;;;2.10;;
55025;SDS011;40925;45.666;18.994;2023-04-29T15:08:28;3.42;;;1.88;;
55025;SDS011;40925;45.666;18.994;2023-04-29T15:10:55;4.18;;;2.00;;
55025;SDS011;40925;45.666;18.994;2023-04-29T15:13:20;4.38;;;1.95;;
55025;SDS011;40925;45.666;18.994;2023-04-29T15:15:47;4.03;;;2.00;;